createdAt,value
2019-06-26T00:01:00.293Z,65.66
2019-06-26T00:06:09.467Z,65.62
2019-06-26T00:11:18.730Z,64.94
2019-06-26T00:16:28.049Z,61.13
2019-06-26T00:21:37.165Z,62.51
2019-06-26T00:26:46.415Z,60.06
2019-06-26T00:31:55.502Z,64.72
2019-06-26T00:37:04.687Z,64.93
2019-06-26T00:42:13.784Z,64.66
2019-06-26T00:47:22.955Z,62.76
2019-06-26T00:52:32.095Z,66.64
2019-06-26T00:57:41.248Z,63.44
2019-06-26T01:02:50.387Z,63.33
2019-06-26T01:07:59.560Z,64.16
2019-06-26T01:13:09.757Z,65.26
2019-06-26T01:18:08.866Z,67.00
2019-06-26T01:23:18.028Z,62.49
2019-06-26T01:28:27.194Z,59.96
2019-06-26T01:33:36.323Z,60.28
2019-06-26T01:38:45.523Z,60.40
2019-06-26T01:43:54.635Z,55.81
2019-06-26T01:49:03.794Z,54.73
2019-06-26T01:54:12.914Z,58.66
2019-06-26T01:59:22.100Z,56.26
2019-06-26T02:04:31.246Z,57.71
2019-06-26T02:09:40.455Z,60.35
2019-06-26T02:14:49.595Z,60.06
2019-06-26T02:19:58.791Z,65.57
2019-06-26T02:25:07.966Z,65.02
2019-06-26T02:30:17.155Z,66.13
2019-06-26T02:35:26.294Z,65.64
2019-06-26T02:40:35.483Z,67.11
2019-06-26T02:45:44.590Z,67.36
2019-06-26T02:50:53.735Z,63.33
2019-06-26T02:56:02.912Z,64.64
2019-06-26T03:01:12.075Z,59.87
2019-06-26T03:06:21.214Z,59.92
2019-06-26T03:11:30.514Z,59.98
2019-06-26T03:16:39.641Z,58.92
2019-06-26T03:21:48.843Z,58.69
2019-06-26T03:26:57.955Z,58.54
2019-06-26T03:32:07.504Z,54.83
2019-06-26T03:37:15.172Z,52.56
2019-06-26T03:42:24.385Z,52.17
2019-06-26T03:47:33.470Z,51.24
2019-06-26T03:52:42.637Z,51.04
2019-06-26T03:57:51.754Z,50.59
2019-06-26T04:03:00.918Z,51.81
2019-06-26T04:08:10.054Z,51.29
2019-06-26T04:13:19.229Z,49.95
2019-06-26T04:18:28.370Z,48.95
2019-06-26T04:23:37.543Z,51.77
2019-06-26T04:28:46.641Z,54.40
2019-06-26T04:33:55.784Z,53.38
2019-06-26T04:39:04.914Z,59.57
2019-06-26T04:44:14.093Z,58.08
2019-06-26T04:49:23.267Z,57.44
2019-06-26T04:54:32.471Z,54.27
2019-06-26T04:59:41.630Z,43.33
2019-06-26T05:04:51.994Z,39.45
2019-06-26T05:09:51.103Z,39.00
2019-06-26T05:15:00.347Z,42.67
2019-06-26T05:20:09.471Z,50.75
2019-06-26T05:25:18.625Z,49.88
2019-06-26T05:30:27.778Z,48.54
2019-06-26T05:35:36.970Z,48.31
2019-06-26T05:40:46.136Z,50.63
2019-06-26T05:45:55.356Z,45.32
2019-06-26T05:51:04.647Z,45.94
2019-06-26T05:56:13.813Z,44.45
2019-06-26T06:01:22.987Z,48.84
2019-06-26T06:06:41.679Z,50.52
2019-06-26T06:11:40.740Z,46.87
2019-06-26T06:16:50.245Z,48.58
2019-06-26T06:21:59.366Z,50.32
2019-06-26T06:27:08.509Z,50.79
2019-06-26T06:32:17.732Z,50.90
2019-06-26T06:37:26.910Z,52.21
2019-06-26T06:42:36.078Z,51.50
2019-06-26T06:47:45.280Z,50.96
2019-06-26T06:52:54.441Z,47.97
2019-06-26T06:58:03.587Z,54.67
2019-06-26T07:03:12.729Z,58.47
2019-06-26T07:08:21.873Z,53.75
2019-06-26T07:13:31.015Z,50.40
2019-06-26T07:18:40.239Z,56.25
2019-06-26T07:23:49.386Z,50.18
2019-06-26T07:28:58.545Z,51.12
2019-06-26T07:34:07.802Z,53.27
2019-06-26T07:39:16.952Z,53.27
2019-06-26T07:44:26.065Z,52.35
2019-06-26T07:49:35.230Z,50.90
2019-06-26T07:54:44.442Z,52.85
2019-06-26T07:59:53.626Z,54.28
2019-06-26T08:05:02.946Z,53.32
2019-06-26T08:10:12.130Z,53.41
2019-06-26T08:15:21.311Z,53.68
2019-06-26T08:20:30.614Z,52.23
2019-06-26T08:25:39.809Z,53.64
2019-06-26T08:30:49.027Z,52.01
2019-06-26T08:35:58.118Z,51.96
2019-06-26T08:41:08.374Z,54.18
2019-06-26T08:46:07.472Z,54.09
2019-06-26T08:51:16.741Z,55.56
2019-06-26T08:56:25.917Z,54.26
2019-06-26T09:01:35.293Z,53.69
2019-06-26T09:06:44.557Z,54.69
2019-06-26T09:11:53.788Z,55.36
2019-06-26T09:17:03.101Z,57.46
2019-06-26T09:22:13.863Z,56.72
2019-06-26T09:27:15.013Z,58.67
2019-06-26T09:32:21.810Z,57.28
2019-06-26T09:37:31.013Z,54.67
2019-06-26T09:42:41.387Z,56.64
2019-06-26T09:47:40.471Z,56.50
2019-06-26T09:52:49.775Z,54.89
2019-06-26T09:57:58.935Z,51.24
2019-06-26T10:03:08.111Z,48.97
2019-06-26T10:08:17.257Z,50.95
2019-06-26T10:13:26.428Z,52.31
2019-06-26T10:18:35.679Z,50.63
2019-06-26T10:23:45.069Z,51.63
2019-06-26T10:28:54.372Z,54.08
2019-06-26T10:34:03.630Z,52.99
2019-06-26T10:39:12.963Z,50.65
2019-06-26T10:44:22.147Z,50.16
2019-06-26T10:49:31.382Z,49.11
2019-06-26T10:54:44.184Z,46.23
2019-06-26T10:59:49.634Z,46.78
2019-06-26T11:04:58.771Z,44.01
2019-06-26T11:10:08.587Z,39.04
2019-06-26T11:15:16.919Z,39.30
2019-06-26T11:20:26.134Z,38.40
2019-06-26T11:25:35.334Z,36.69
2019-06-26T11:30:44.546Z,38.98
2019-06-26T11:35:53.758Z,36.59
2019-06-26T11:41:03.030Z,36.41
2019-06-26T11:46:12.214Z,36.53
2019-06-26T11:51:21.736Z,35.97
2019-06-26T11:56:32.001Z,33.89
2019-06-26T12:01:31.087Z,34.12
2019-06-26T12:06:40.301Z,31.27
2019-06-26T12:11:49.450Z,31.76
2019-06-26T12:16:58.663Z,34.13
2019-06-26T12:22:07.798Z,33.56
2019-06-26T12:27:16.974Z,30.95
2019-06-26T12:32:26.198Z,29.92
2019-06-26T12:37:37.930Z,30.34
2019-06-26T12:42:44.150Z,30.21
2019-06-26T12:47:53.358Z,31.95
2019-06-26T12:53:02.596Z,31.92
2019-06-26T12:58:13.940Z,38.31
2019-06-26T13:03:20.528Z,38.43
2019-06-26T13:08:29.751Z,36.43
2019-06-26T13:13:39.037Z,37.22
2019-06-26T13:18:48.218Z,39.04
2019-06-26T13:23:57.367Z,39.12
2019-06-26T13:29:09.629Z,37.74
2019-06-26T13:34:15.235Z,35.18
2019-06-26T13:39:24.443Z,36.79
2019-06-26T13:44:33.692Z,37.26
2019-06-26T13:49:42.923Z,34.50
2019-06-26T13:54:52.161Z,32.98
2019-06-26T14:00:01.346Z,27.41
2019-06-26T14:05:10.452Z,26.54
2019-06-26T14:10:19.621Z,24.49
2019-06-26T14:15:28.795Z,24.39
2019-06-26T14:20:37.962Z,23.97
2019-06-26T14:25:47.105Z,19.32
2019-06-26T14:30:56.275Z,19.41
2019-06-26T14:36:05.422Z,19.62
2019-06-26T14:41:14.620Z,19.32
2019-06-26T14:46:23.737Z,17.65
2019-06-26T14:51:46.362Z,14.99
2019-06-26T14:56:41.506Z,16.79
2019-06-26T15:01:50.762Z,18.13
2019-06-26T15:06:59.903Z,18.62
2019-06-26T15:12:09.122Z,18.87
2019-06-26T15:17:18.363Z,18.28
2019-06-26T15:22:27.639Z,17.17
2019-06-26T15:27:36.786Z,18.16
2019-06-26T15:32:45.933Z,15.69
2019-06-26T15:37:55.041Z,17.25
2019-06-26T15:43:04.200Z,16.32
2019-06-26T15:48:13.415Z,13.38
2019-06-26T15:53:22.650Z,12.71
2019-06-26T15:58:31.769Z,12.45
2019-06-26T16:03:41.018Z,12.00
2019-06-26T16:08:50.159Z,11.29
2019-06-26T16:13:59.381Z,10.89
2019-06-26T16:19:08.590Z,10.07
2019-06-26T16:24:17.942Z,9.26
2019-06-26T16:29:27.074Z,8.02
2019-06-26T16:34:36.290Z,7.72
2019-06-26T16:39:45.418Z,7.66
2019-06-26T16:44:54.585Z,6.91
2019-06-26T16:50:03.747Z,5.77
2019-06-26T16:55:12.972Z,5.56
2019-06-26T17:00:22.140Z,4.91
2019-06-26T17:05:31.354Z,5.01
2019-06-26T17:10:40.492Z,4.44
2019-06-26T17:15:49.667Z,4.30
2019-06-26T17:20:58.795Z,3.99
2019-06-26T17:26:08.477Z,4.34
2019-06-26T17:31:17.620Z,4.03
2019-06-26T17:36:28.885Z,3.75
2019-06-26T17:41:35.506Z,3.83
2019-06-26T17:46:44.696Z,3.86
2019-06-26T17:51:53.988Z,3.81
2019-06-26T17:57:04.146Z,3.60
2019-06-26T18:02:03.314Z,2.84
2019-06-26T18:07:12.707Z,2.67
2019-06-26T18:12:21.913Z,2.75
2019-06-26T18:17:31.062Z,2.14
2019-06-26T18:22:40.550Z,2.12
2019-06-26T18:27:49.726Z,2.20
2019-06-26T18:32:58.954Z,2.07
2019-06-26T18:38:08.196Z,1.90
2019-06-26T18:43:17.402Z,1.80
2019-06-26T18:48:26.727Z,1.82
2019-06-26T18:53:35.935Z,1.76
2019-06-26T18:58:45.104Z,1.78
2019-06-26T19:03:54.273Z,2.05
2019-06-26T19:09:03.513Z,2.05
2019-06-26T19:14:12.708Z,1.90
2019-06-26T19:19:21.973Z,1.80
2019-06-26T19:24:31.205Z,1.93
2019-06-26T19:29:40.499Z,2.08
2019-06-26T19:34:49.687Z,2.16
2019-06-26T19:39:59.050Z,2.16
2019-06-26T19:45:08.267Z,2.13
2019-06-26T19:50:17.564Z,2.22
2019-06-26T19:55:26.823Z,2.39
2019-06-26T20:00:36.057Z,2.63
2019-06-26T20:05:47.655Z,2.34
2019-06-26T20:10:46.844Z,2.49
2019-06-26T20:15:57.194Z,2.72
2019-06-26T20:20:56.324Z,2.83
2019-06-26T20:26:05.498Z,2.93
2019-06-26T20:31:14.876Z,3.23
2019-06-26T20:36:24.097Z,2.82
2019-06-26T20:41:33.278Z,3.05
2019-06-26T20:46:42.551Z,3.30
2019-06-26T20:51:51.856Z,3.90
2019-06-26T20:57:01.087Z,3.57
2019-06-26T21:02:10.422Z,3.60
2019-06-26T21:07:19.706Z,3.61
2019-06-26T21:12:29.907Z,3.53
2019-06-26T21:17:29.037Z,3.74
2019-06-26T21:22:38.364Z,3.44
2019-06-26T21:27:47.595Z,3.59
2019-06-26T21:32:56.775Z,3.65
2019-06-26T21:38:05.967Z,3.79
2019-06-26T21:43:15.223Z,4.06
2019-06-26T21:48:24.414Z,3.90
2019-06-26T21:53:33.662Z,3.75
2019-06-26T21:58:42.958Z,3.91
2019-06-26T22:03:52.142Z,3.81
2019-06-26T22:09:01.389Z,3.57
2019-06-26T22:14:10.631Z,4.00
2019-06-26T22:19:19.839Z,4.02
2019-06-26T22:24:29.168Z,3.80
2019-06-26T22:29:44.238Z,3.93
2019-06-26T22:34:43.371Z,4.05
2019-06-26T22:39:52.547Z,4.13
2019-06-26T22:45:01.899Z,4.22
2019-06-26T22:50:11.020Z,4.22
2019-06-26T22:55:20.343Z,4.34
2019-06-26T23:00:29.570Z,4.56
2019-06-26T23:05:38.818Z,4.76
2019-06-26T23:10:48.075Z,4.92
2019-06-26T23:15:57.322Z,4.88
2019-06-26T23:21:06.471Z,4.88
2019-06-26T23:26:24.122Z,4.88
2019-06-26T23:31:24.542Z,4.96
2019-06-26T23:36:33.675Z,5.34
2019-06-26T23:41:42.931Z,5.39
2019-06-26T23:46:52.275Z,5.50
2019-06-26T23:52:01.412Z,5.38
2019-06-26T23:57:10.720Z,5.73
